»·PEaware :: N350JP KSNA-KBUR

N350JP :: KSNA-KBUR

FLIGHT INFORMATION

Flight Status: Arrived
Operator: Privately registered:
United States
More flights under this callsign
Pilot: Matthew D. (16794)
Aircraft: BEECH AIRCRAFT A90-E90 KING AIR
(BE9L)
More flights by this aircraft type
Origin: KSNA John Wayne-Orange Co
United States
Destination: KBUR Bob Hope-Burbank
United States
More flights between these airports :: More routes between these airports
Route: SLI V23 LAX LAX316 SILEX
File this flight plan on PilotEdge
Remarks: DOF / 171013 REG / N350JP RMK / TCAS SIMBRIEF
Altitude:
(Current/Filed)
8,000ft
Speed:
(Current/Filed)
288kts
Departed: 12-Oct-17 08:47 PM
Arrived: 12-Oct-17 09:35 PM
Distance/Time
Traveled:
44nm/0:48
Distance/Time
To Go:
Arrived

Flight Plot

Page will automatically refresh every two minutes.


Map Options




Map Legend


Flown Route
Filed Route
Departure Airport
Arrival Airport
Navaid (VOR, NDB)
Fix

Horizontal Profiles

Position Reports

Time Latitude Longitude Heading Altitude Ground
Speed
12-Oct-17 20:36 33.678321 -117.869109 83 46ft 0kts
12-Oct-17 20:37 33.678321 -117.869109 83 46ft 0kts
12-Oct-17 20:37 33.678321 -117.869109 83 46ft 0kts
12-Oct-17 20:38 33.678321 -117.869109 83 46ft 0kts
12-Oct-17 20:39 33.678321 -117.869109 83 46ft 0kts
12-Oct-17 20:40 33.678321 -117.869109 83 46ft 0kts
12-Oct-17 20:41 33.678321 -117.869109 83 46ft 0kts
12-Oct-17 20:42 33.678321 -117.869109 83 46ft 0kts
12-Oct-17 20:43 33.678321 -117.869109 83 46ft 0kts
12-Oct-17 20:44 33.678321 -117.869109 83 46ft 0kts
12-Oct-17 20:45 33.678321 -117.869109 83 46ft 0kts
12-Oct-17 20:46 33.678345 -117.868866 83 46ft 8kts
12-Oct-17 20:47 33.680359 -117.867562 27 42ft 22kts
12-Oct-17 20:48 33.681942 -117.865979 106 39ft 0kts
12-Oct-17 20:49 33.681942 -117.865979 106 39ft 0kts
12-Oct-17 20:50 33.681403 -117.865297 197 39ft 17kts
12-Oct-17 20:51 33.671217 -117.871385 206 428ft 107kts
12-Oct-17 20:52 33.647622 -117.874516 186 885ft 165kts
12-Oct-17 20:53 33.618511 -117.877536 186 1577ft 180kts
12-Oct-17 20:54 33.590621 -117.889265 243 2286ft 173kts
12-Oct-17 20:55 33.595725 -117.920327 292 2883ft 169kts
12-Oct-17 20:56 33.606684 -117.951774 292 3519ft 169kts
12-Oct-17 20:57 33.619994 -117.979851 328 4099ft 171kts
12-Oct-17 20:58 33.645073 -117.994943 333 4715ft 176kts
12-Oct-17 20:59 33.671705 -118.010194 333 5405ft 183kts
12-Oct-17 21:00 33.698053 -118.025297 333 6042ft 189kts
12-Oct-17 21:01 33.727949 -118.042479 333 6012ft 212kts
12-Oct-17 21:02 33.758104 -118.059814 333 6010ft 217kts
12-Oct-17 21:03 33.789308 -118.070983 357 6007ft 220kts
12-Oct-17 21:04 33.818683 -118.081595 332 6006ft 218kts
12-Oct-17 21:05 33.847780 -118.101648 328 6005ft 218kts
12-Oct-17 21:06 33.875333 -118.121402 328 6007ft 218kts
12-Oct-17 21:07 33.904332 -118.142440 328 6005ft 218kts
12-Oct-17 21:08 33.928055 -118.173335 306 6005ft 218kts
12-Oct-17 21:09 33.948941 -118.206673 306 6007ft 217kts
12-Oct-17 21:10 33.970359 -118.240897 305 6009ft 218kts
12-Oct-17 21:11 33.991621 -118.274911 305 6010ft 218kts
12-Oct-17 21:12 34.013236 -118.309515 305 6010ft 219kts
12-Oct-17 21:13 34.035161 -118.344657 305 6010ft 220kts
12-Oct-17 21:14 34.059164 -118.383165 305 5737ft 230kts
12-Oct-17 21:15 34.082593 -118.420648 306 5296ft 234kts
12-Oct-17 21:16 34.108440 -118.460893 306 4829ft 235kts
12-Oct-17 21:17 34.139305 -118.502369 338 4279ft 238kts
12-Oct-17 21:18 34.178057 -118.510159 351 3819ft 222kts
12-Oct-17 21:40 34.209535 -118.487362 137 779ft 0kts
12-Oct-17 21:41 34.209535 -118.487362 137 779ft 0kts
12-Oct-17 21:42 34.209535 -118.487362 137 779ft 0kts
12-Oct-17 21:43 34.209535 -118.487362 137 779ft 0kts
12-Oct-17 21:44 34.209526 -118.487369 137 781ft 0kts
12-Oct-17 21:45 34.209526 -118.487369 137 781ft 0kts
12-Oct-17 21:46 34.209526 -118.487369 137 781ft 0kts
12-Oct-17 21:47 34.209498 -118.487337 137 779ft 0kts
12-Oct-17 21:48 34.209431 -118.487260 127 779ft 0kts
12-Oct-17 21:49 34.209414 -118.487232 125 779ft 0kts
12-Oct-17 21:50 34.209399 -118.487208 124 779ft 0kts
12-Oct-17 21:51 34.209391 -118.487194 122 779ft 0kts
12-Oct-17 21:52 34.209387 -118.487187 122 779ft 0kts
12-Oct-17 21:53 34.209531 -118.487378 137 778ft 0kts
12-Oct-17 21:54 34.209531 -118.487378 137 778ft 0kts
12-Oct-17 21:55 34.209531 -118.487378 137 778ft 0kts

Navigation Log

Ident Type
1. KSNA Airport
2. SLI Navaid
3. POPPR Fix
4. HERMO Fix
5. LAX Navaid
6. SILEX Fix
7. KBUR Airport